Time;durP1;ratioP1;P1;durP2;ratioP2;P2;SDS_P1;SDS_P2;PMS_P1;PMS_P2;Temp;Humidity;BMP_temperature;BMP_pressure;BME280_temperature;BME280_humidity;BME280_pressure;Samples;Min_cycle;Max_cycle;Signal;HPM_P1;HPM_P2
2023/01/18 00:00:41;;;;;;;16.83;13.30;;;;;19.30;97908.00;;;;2083726;28;20691;-72
2023/01/18 00:01:42;;;;;;;17.97;13.70;;;;;19.30;97950.00;;;;2083898;28;20214;-72
2023/01/18 00:02:45;;;;;;;18.33;13.50;;;;;19.30;97929.00;;;;2084685;28;20213;-72
2023/01/18 00:03:46;;;;;;;15.93;13.75;;;;;19.30;97975.00;;;;2083929;28;20210;-72
2023/01/18 00:04:46;;;;;;;14.90;13.07;;;;;19.30;97976.00;;;;2084171;28;20213;-72
2023/01/18 00:05:46;;;;;;;15.83;12.80;;;;;19.30;97970.00;;;;2083291;28;20209;-72
2023/01/18 00:06:47;;;;;;;14.13;12.33;;;;;19.20;97961.00;;;;2083801;28;20217;-72
2023/01/18 00:07:48;;;;;;;15.37;12.50;;;;;19.30;97970.00;;;;2084000;28;20209;-72
2023/01/18 00:08:49;;;;;;;15.10;13.23;;;;;19.30;97967.00;;;;2083555;28;20244;-73
2023/01/18 00:09:49;;;;;;;15.43;12.47;;;;;19.20;97969.00;;;;2083762;28;20259;-72
2023/01/18 00:10:49;;;;;;;16.57;13.40;;;;;19.20;97962.00;;;;2084854;28;20217;-72
2023/01/18 00:11:50;;;;;;;15.27;12.30;;;;;19.20;97950.00;;;;2084716;28;20209;-72
2023/01/18 00:12:50;;;;;;;17.10;12.60;;;;;19.20;97957.00;;;;2084681;28;20261;-72
2023/01/18 00:13:52;;;;;;;14.67;12.87;;;;;19.20;97970.00;;;;2084620;28;20319;-72
2023/01/18 00:14:53;;;;;;;12.95;11.55;;;;;19.20;97973.00;;;;2083713;28;20229;-72
2023/01/18 00:15:53;;;;;;;16.93;12.93;;;;;19.20;97962.00;;;;2083468;28;20224;-72
2023/01/18 00:16:53;;;;;;;15.10;12.20;;;;;19.20;97964.00;;;;2083503;28;20221;-71
2023/01/18 00:17:54;;;;;;;14.07;12.00;;;;;19.10;97963.00;;;;2083720;28;20252;-72
2023/01/18 00:18:57;;;;;;;13.93;12.43;;;;;19.20;97966.00;;;;2083845;28;20955;-72
2023/01/18 00:19:57;;;;;;;14.50;12.27;;;;;19.20;97960.00;;;;2084648;28;20763;-72
2023/01/18 00:21:02;;;;;;;13.83;12.07;;;;;19.10;97964.00;;;;2084522;28;20239;-72
2023/01/18 00:22:02;;;;;;;14.23;12.15;;;;;19.10;97968.00;;;;2083894;28;20253;-72
2023/01/18 00:23:02;;;;;;;14.37;12.87;;;;;19.10;97967.00;;;;2083354;28;20593;-73
2023/01/18 00:24:03;;;;;;;13.13;11.60;;;;;19.10;97962.00;;;;2083486;28;20574;-72
2023/01/18 00:25:03;;;;;;;12.90;11.20;;;;;19.10;97963.00;;;;2082578;28;20205;-71
2023/01/18 00:26:05;;;;;;;15.40;11.90;;;;;19.10;97963.00;;;;2074812;28;20222;-73
2023/01/18 00:27:08;;;;;;;13.45;11.75;;;;;19.10;97970.00;;;;2083422;28;20221;-73
2023/01/18 00:28:08;;;;;;;12.93;10.90;;;;;19.10;97959.00;;;;2083694;28;20581;-73
2023/01/18 00:29:09;;;;;;;15.43;11.87;;;;;19.10;97926.00;;;;2084032;28;20212;-73
2023/01/18 00:30:10;;;;;;;12.10;10.80;;;;;19.10;97967.00;;;;2083745;28;20556;-73
2023/01/18 00:31:11;;;;;;;13.27;11.20;;;;;19.00;97946.00;;;;2081879;28;20300;-73
2023/01/18 00:32:13;;;;;;;13.73;11.23;;;;;19.10;97973.00;;;;2084734;28;20479;-73
2023/01/18 00:33:13;;;;;;;11.85;10.52;;;;;19.10;97968.00;;;;2086455;28;20498;-74
2023/01/18 00:34:14;;;;;;;13.50;11.30;;;;;19.00;97967.00;;;;2083945;28;20209;-74
2023/01/18 00:35:14;;;;;;;13.50;10.63;;;;;19.10;97972.00;;;;2083887;28;20229;-73
2023/01/18 00:36:15;;;;;;;12.10;10.90;;;;;19.00;97966.00;;;;2083356;28;20268;-73
2023/01/18 00:37:16;;;;;;;13.10;11.23;;;;;19.00;97971.00;;;;2078578;28;20205;-74
2023/01/18 00:38:16;;;;;;;12.60;11.27;;;;;19.00;97965.00;;;;2083656;28;20453;-73
2023/01/18 00:39:16;;;;;;;14.47;11.63;;;;;19.00;97965.00;;;;2084671;28;20270;-73
2023/01/18 00:40:18;;;;;;;14.47;12.00;;;;;19.00;97968.00;;;;2084805;28;20209;-74
2023/01/18 00:41:19;;;;;;;12.90;10.88;;;;;19.00;97970.00;;;;2084552;28;20217;-74
2023/01/18 00:43:38;;;;;;;12.05;10.75;;;;;19.00;97982.00;;;;2083997;28;20225;-74
2023/01/18 00:44:38;;;;;;;12.13;10.50;;;;;19.00;97978.00;;;;2084521;28;20221;-73
2023/01/18 00:45:39;;;;;;;12.30;9.70;;;;;19.00;97982.00;;;;2084750;28;20213;-73
2023/01/18 00:46:40;;;;;;;11.97;10.13;;;;;19.00;97978.00;;;;2084708;28;20209;-74
2023/01/18 00:47:40;;;;;;;15.10;10.67;;;;;19.00;97988.00;;;;2084451;28;20448;-73
2023/01/18 00:48:41;;;;;;;11.50;10.27;;;;;19.00;97983.00;;;;2081784;28;20687;-74
2023/01/18 00:49:41;;;;;;;11.17;9.97;;;;;19.00;97986.00;;;;2083750;28;20626;-73
2023/01/18 00:50:42;;;;;;;12.40;10.60;;;;;19.00;97983.00;;;;2083854;28;20217;-73
2023/01/18 00:51:42;;;;;;;11.60;10.40;;;;;19.00;97985.00;;;;2084085;28;20212;-73
2023/01/18 00:52:45;;;;;;;12.27;9.73;;;;;19.00;97979.00;;;;2083806;28;20212;-73
2023/01/18 00:53:46;;;;;;;11.18;9.63;;;;;19.00;97985.00;;;;2087379;28;20302;-73
2023/01/18 00:54:46;;;;;;;12.67;11.00;;;;;18.90;97981.00;;;;2087430;28;20262;-74
2023/01/18 00:55:46;;;;;;;12.37;10.20;;;;;18.90;97982.00;;;;2083360;28;20486;-73
2023/01/18 00:56:47;;;;;;;13.93;10.53;;;;;18.90;97982.00;;;;2083046;28;20217;-73
2023/01/18 00:57:47;;;;;;;12.57;10.50;;;;;18.90;97984.00;;;;2083756;28;20223;-74
2023/01/18 00:58:48;;;;;;;11.63;10.00;;;;;18.90;97979.00;;;;2083401;28;20228;-74
2023/01/18 00:59:48;;;;;;;11.43;10.20;;;;;18.90;97975.00;;;;2083729;28;20228;-73
2023/01/18 01:00:51;;;;;;;11.50;10.40;;;;;18.90;97973.00;;;;2084311;28;20687;-74
2023/01/18 01:01:52;;;;;;;11.85;9.88;;;;;18.90;97977.00;;;;2084506;28;20221;-73
2023/01/18 01:02:52;;;;;;;11.53;9.60;;;;;18.90;97946.00;;;;2084468;28;20775;-74
2023/01/18 01:06:43;;;;;;;10.75;9.20;;;;;18.90;97986.00;;;;2083332;28;20213;-74
2023/01/18 01:07:43;;;;;;;12.18;9.85;;;;;18.90;97964.00;;;;2083467;28;20292;-74
2023/01/18 01:08:48;;;;;;;12.50;10.23;;;;;18.80;97982.00;;;;2083334;28;20236;-74
2023/01/18 01:09:49;;;;;;;10.88;9.25;;;;;18.80;97984.00;;;;2083215;28;20654;-74
2023/01/18 01:10:50;;;;;;;9.67;8.57;;;;;18.90;97985.00;;;;2083303;28;20220;-74
2023/01/18 01:26:20;;;;;;;10.88;8.90;;;;;18.80;97993.00;;;;2083260;28;20216;-74
2023/01/18 01:27:20;;;;;;;9.87;8.87;;;;;18.80;97987.00;;;;2084137;28;20228;-73
2023/01/18 01:28:21;;;;;;;9.40;8.13;;;;;18.80;97992.00;;;;2083974;28;20205;-74
2023/01/18 01:29:21;;;;;;;12.23;9.97;;;;;18.80;97993.00;;;;2084271;28;20214;-73
2023/01/18 01:30:21;;;;;;;10.57;9.23;;;;;18.80;97989.00;;;;2083627;28;20205;-73
2023/01/18 01:31:22;;;;;;;8.97;8.07;;;;;18.70;97995.00;;;;2082020;28;20212;-73
2023/01/18 01:32:22;;;;;;;9.80;8.80;;;;;18.70;97990.00;;;;2083338;28;20212;-72
2023/01/18 01:33:23;;;;;;;11.20;9.53;;;;;18.70;97880.00;;;;2084501;28;20216;-73
2023/01/18 01:34:23;;;;;;;10.70;9.60;;;;;18.70;97993.00;;;;2082756;28;20239;-73
2023/01/18 01:35:23;;;;;;;9.70;8.70;;;;;18.70;97994.00;;;;2080658;28;20217;-71
2023/01/18 01:36:26;;;;;;;10.53;9.23;;;;;18.70;97980.00;;;;2087184;28;20636;-73
2023/01/18 01:37:26;;;;;;;12.43;9.40;;;;;18.70;98003.00;;;;2087175;28;20214;-74
2023/01/18 01:38:27;;;;;;;10.10;8.83;;;;;18.70;97999.00;;;;2084095;28;20212;-74
2023/01/18 01:39:27;;;;;;;10.60;9.27;;;;;18.70;98003.00;;;;2081993;28;20232;-74
2023/01/18 01:40:28;;;;;;;9.77;8.77;;;;;18.70;98003.00;;;;2083427;28;20205;-73
2023/01/18 01:41:30;;;;;;;10.20;9.20;;;;;18.70;98000.00;;;;2083029;28;20213;-74
2023/01/18 01:42:30;;;;;;;10.05;9.00;;;;;18.70;98002.00;;;;2082741;28;20222;-73
2023/01/18 01:43:40;;;;;;;10.13;8.90;;;;;18.70;98009.00;;;;2082920;28;20556;-74
2023/01/18 01:44:46;;;;;;;9.35;8.27;;;;;18.70;98002.00;;;;2084165;28;20213;-73
2023/01/18 01:45:48;;;;;;;10.93;9.40;;;;;18.70;98003.00;;;;2083044;28;20764;-74
2023/01/18 01:46:55;;;;;;;10.13;8.65;;;;;18.70;98010.00;;;;2082427;28;20209;-74
2023/01/18 01:47:56;;;;;;;9.35;8.45;;;;;18.60;98011.00;;;;2083240;28;20592;-74
2023/01/18 01:49:16;;;;;;;10.33;9.33;;;;;18.60;98006.00;;;;2083873;28;20221;-73
2023/01/18 01:50:23;;;;;;;9.30;8.30;;;;;18.60;98011.00;;;;2083675;28;20633;-73
2023/01/18 01:51:23;;;;;;;10.38;8.93;;;;;18.60;98025.00;;;;2083266;28;20204;-73
2023/01/18 01:52:30;;;;;;;13.10;9.63;;;;;18.60;97998.00;;;;2083360;28;20582;-74
2023/01/18 01:53:31;;;;;;;10.25;9.18;;;;;18.60;98009.00;;;;2081851;28;20220;-73
2023/01/18 01:54:36;;;;;;;10.00;8.67;;;;;18.60;97990.00;;;;2082667;28;20209;-74
2023/01/18 01:55:36;;;;;;;9.57;8.65;;;;;18.60;98004.00;;;;2080934;28;20244;-73
2023/01/18 01:56:37;;;;;;;10.33;9.20;;;;;18.60;98011.00;;;;2074924;28;20655;-73
2023/01/18 01:57:40;;;;;;;8.73;7.97;;;;;18.60;97966.00;;;;2082743;28;20325;-73
2023/01/18 01:58:40;;;;;;;10.05;9.02;;;;;18.60;97968.00;;;;2082502;28;20259;-73
2023/01/18 01:59:44;;;;;;;10.80;9.50;;;;;18.60;98013.00;;;;2082366;28;20309;-73
2023/01/18 02:00:44;;;;;;;9.75;8.35;;;;;18.60;98013.00;;;;2068058;28;20232;-73
2023/01/18 02:01:45;;;;;;;9.60;8.60;;;;;18.50;98014.00;;;;2083512;28;20568;-73
2023/01/18 02:02:47;;;;;;;10.50;9.40;;;;;18.60;98000.00;;;;2083385;28;20702;-73
2023/01/18 02:03:47;;;;;;;9.73;8.65;;;;;18.60;98007.00;;;;2082671;28;20211;-73
2023/01/18 02:04:52;;;;;;;9.00;8.10;;;;;18.60;98013.00;;;;2082718;28;20683;-73
2023/01/18 02:05:56;;;;;;;10.07;8.82;;;;;18.60;98014.00;;;;2081942;28;20641;-73
2023/01/18 02:06:56;;;;;;;10.60;8.98;;;;;18.60;98012.00;;;;2076152;28;20213;-74
2023/01/18 02:08:00;;;;;;;9.37;8.33;;;;;18.60;98004.00;;;;2083412;28;20220;-73
2023/01/18 02:09:01;;;;;;;10.20;8.80;;;;;18.60;98017.00;;;;2083687;28;20966;-73
2023/01/18 02:10:03;;;;;;;10.65;8.50;;;;;18.60;98011.00;;;;2075190;28;20217;-73
2023/01/18 02:11:03;;;;;;;8.73;7.90;;;;;18.50;98015.00;;;;2074348;28;20229;-73
2023/01/18 02:12:04;;;;;;;10.10;8.80;;;;;18.60;98016.00;;;;2082955;28;20273;-73
2023/01/18 02:13:07;;;;;;;9.60;8.53;;;;;18.50;98012.00;;;;2083716;28;20687;-72
2023/01/18 02:14:12;;;;;;;10.32;8.00;;;;;18.50;97996.00;;;;2083887;28;20213;-73
2023/01/18 02:15:12;;;;;;;10.60;9.30;;;;;18.50;98028.00;;;;2083584;28;20216;-73
2023/01/18 02:16:19;;;;;;;10.20;9.13;;;;;18.50;98016.00;;;;2083676;28;20679;-73
2023/01/18 02:17:23;;;;;;;9.45;8.45;;;;;18.50;98009.00;;;;2082895;28;20663;-73
2023/01/18 02:18:31;;;;;;;9.30;8.40;;;;;18.50;98010.00;;;;2082829;28;20244;-72
2023/01/18 02:19:58;;;;;;;9.10;8.18;;;;;18.50;98015.00;;;;2083008;28;20722;-73
2023/01/18 02:21:13;;;;;;;10.00;8.07;;;;;18.50;98018.00;;;;2081658;28;20224;-73
2023/01/18 02:22:44;;;;;;;10.38;9.18;;;;;18.50;97984.00;;;;2083001;28;20227;-73
2023/01/18 02:24:25;;;;;;;9.13;8.18;;;;;18.60;98026.00;;;;2084592;28;20216;-74
2023/01/18 02:26:03;;;;;;;9.55;8.55;;;;;18.50;98027.00;;;;2083054;28;20220;-73
2023/01/18 02:27:04;;;;;;;9.57;8.30;;;;;18.50;98007.00;;;;2085338;28;20263;-73
2023/01/18 02:28:05;;;;;;;9.02;7.72;;;;;18.50;98025.00;;;;2078237;28;20252;-73
2023/01/18 02:29:12;;;;;;;10.70;8.77;;;;;18.50;98026.00;;;;2077182;28;20255;-74
2023/01/18 02:30:15;;;;;;;9.30;8.20;;;;;18.40;98026.00;;;;2083281;28;20761;-73
2023/01/18 02:31:17;;;;;;;9.40;8.02;;;;;18.50;97985.00;;;;2085484;28;20250;-73
2023/01/18 02:32:47;;;;;;;8.32;7.53;;;;;18.50;98018.00;;;;2084099;28;20766;-73
2023/01/18 02:33:58;;;;;;;10.15;8.60;;;;;18.40;98026.00;;;;2083561;28;20220;-73
2023/01/18 02:35:15;;;;;;;12.55;8.63;;;;;18.40;98025.00;;;;2084469;28;20216;-73
2023/01/18 02:36:30;;;;;;;8.73;7.93;;;;;18.40;98030.00;;;;2082948;28;20217;-73
2023/01/18 02:38:00;;;;;;;8.98;7.95;;;;;18.40;98027.00;;;;2075396;28;20688;-72
2023/01/18 02:39:30;;;;;;;9.65;8.13;;;;;18.40;98026.00;;;;2076076;28;20212;-73
2023/01/18 02:40:36;;;;;;;9.55;8.55;;;;;18.40;97979.00;;;;2075731;28;20216;-72
2023/01/18 02:47:03;;;;;;;10.23;8.70;;;;;18.40;98033.00;;;;2084871;28;20216;-73
2023/01/18 02:48:04;;;;;;;10.03;9.03;;;;;18.40;98038.00;;;;2084203;28;20219;-73
2023/01/18 02:49:07;;;;;;;9.17;8.27;;;;;18.40;97954.00;;;;2083952;28;20220;-73
2023/01/18 02:50:08;;;;;;;8.73;7.82;;;;;18.40;98033.00;;;;2075056;28;20981;-72
2023/01/18 02:51:08;;;;;;;9.35;8.25;;;;;18.40;98035.00;;;;2092863;28;20374;-73
2023/01/18 02:52:41;;;;;;;11.00;8.57;;;;;18.40;98038.00;;;;2092017;28;20217;-73
2023/01/18 02:53:42;;;;;;;10.13;8.90;;;;;18.40;98037.00;;;;2084400;28;20216;-72
2023/01/18 02:54:43;;;;;;;9.30;8.30;;;;;18.30;98035.00;;;;2085997;28;20219;-73
2023/01/18 02:55:50;;;;;;;8.90;7.77;;;;;18.40;98042.00;;;;2085801;28;20217;-73
2023/01/18 02:56:52;;;;;;;9.10;8.13;;;;;18.40;98042.00;;;;2084995;28;20536;-73
2023/01/18 02:57:55;;;;;;;10.10;8.88;;;;;18.40;98047.00;;;;2084119;28;20216;-73
2023/01/18 02:59:19;;;;;;;9.25;8.10;;;;;18.40;98040.00;;;;2084174;28;20216;-74
2023/01/18 03:00:22;;;;;;;10.52;8.80;;;;;18.40;98018.00;;;;2084168;28;20304;-73
2023/01/18 03:01:25;;;;;;;9.48;8.55;;;;;18.40;98040.00;;;;2081063;28;20283;-73
2023/01/18 03:02:25;;;;;;;9.80;8.32;;;;;18.40;98044.00;;;;2069998;28;20229;-74
2023/01/18 03:03:26;;;;;;;10.13;7.80;;;;;18.30;98048.00;;;;2068705;28;20214;-74
2023/01/18 03:04:26;;;;;;;9.90;8.33;;;;;18.30;98048.00;;;;2076737;28;20224;-74
2023/01/18 03:05:26;;;;;;;11.53;8.57;;;;;18.30;98051.00;;;;2084408;28;20691;-74
2023/01/18 03:06:28;;;;;;;9.27;8.23;;;;;18.30;98045.00;;;;2084054;28;20242;-73
2023/01/18 03:07:30;;;;;;;11.02;8.25;;;;;18.30;98052.00;;;;2083858;28;20215;-74
2023/01/18 03:08:43;;;;;;;11.15;8.55;;;;;18.40;98052.00;;;;2074218;28;20248;-73
2023/01/18 03:09:43;;;;;;;8.60;7.72;;;;;18.40;98048.00;;;;2079358;28;20225;-73
2023/01/18 03:11:04;;;;;;;9.97;8.97;;;;;18.40;98058.00;;;;2085422;28;20239;-74
2023/01/18 03:12:11;;;;;;;9.45;8.45;;;;;18.40;98056.00;;;;2083327;28;20260;-73
2023/01/18 03:13:15;;;;;;;9.65;8.50;;;;;18.30;97956.00;;;;2079812;28;20212;-73
2023/01/18 03:14:32;;;;;;;9.35;8.35;;;;;18.30;98057.00;;;;2083706;28;20240;-73
2023/01/18 03:15:46;;;;;;;8.98;7.90;;;;;18.30;98055.00;;;;2080030;28;20220;-73
2023/01/18 03:16:56;;;;;;;11.05;9.27;;;;;18.30;98004.00;;;;2084061;28;20648;-73
2023/01/18 03:17:58;;;;;;;9.73;8.50;;;;;18.20;98047.00;;;;2075451;28;20694;-73
2023/01/18 03:19:02;;;;;;;10.10;8.00;;;;;18.30;98046.00;;;;2068692;28;20233;-73
2023/01/18 03:21:07;;;;;;;9.65;8.50;;;;;18.30;97998.00;;;;2084631;28;20235;-72
2023/01/18 03:22:07;;;;;;;9.63;8.63;;;;;18.30;98051.00;;;;2083794;28;20262;-73
2023/01/18 03:23:41;;;;;;;10.10;8.70;;;;;18.30;98052.00;;;;2084372;28;20322;-73
2023/01/18 03:24:42;;;;;;;9.30;8.30;;;;;18.30;98003.00;;;;2051946;28;20391;-74
2023/01/18 03:25:44;;;;;;;9.18;7.47;;;;;18.30;98030.00;;;;2064219;28;20289;-73
2023/01/18 03:26:47;;;;;;;9.95;7.85;;;;;18.30;98065.00;;;;2076774;28;20256;-73
2023/01/18 03:33:40;;;;;;;10.82;8.63;;;;;18.20;98054.00;;;;2078538;28;20719;-73
2023/01/18 03:35:08;;;;;;;9.95;8.50;;;;;18.30;98064.00;;;;2074423;28;20296;-73
2023/01/18 03:36:17;;;;;;;11.02;8.70;;;;;18.20;98066.00;;;;2080365;28;20242;-73
2023/01/18 03:37:24;;;;;;;10.05;8.48;;;;;18.20;98055.00;;;;2083234;28;20209;-73
2023/01/18 03:38:25;;;;;;;11.57;8.52;;;;;18.20;98069.00;;;;2082865;28;20273;-73
2023/01/18 03:39:27;;;;;;;8.93;8.00;;;;;18.30;98029.00;;;;2075758;28;20634;-73
2023/01/18 03:40:28;;;;;;;13.88;8.60;;;;;18.20;98052.00;;;;2083130;28;20566;-73
2023/01/18 03:41:29;;;;;;;10.70;9.00;;;;;18.20;98070.00;;;;2083294;28;20231;-73
2023/01/18 03:42:32;;;;;;;9.70;8.70;;;;;18.20;98064.00;;;;2059781;28;20247;-73
2023/01/18 03:43:36;;;;;;;11.80;9.05;;;;;18.20;98052.00;;;;2083422;28;21232;-72
2023/01/18 03:44:39;;;;;;;10.90;9.50;;;;;18.20;98069.00;;;;2070293;28;20262;-72
2023/01/18 03:45:43;;;;;;;9.52;8.45;;;;;18.20;98074.00;;;;2075479;28;20217;-73
2023/01/18 03:46:43;;;;;;;10.02;8.88;;;;;18.20;98060.00;;;;2075682;28;20205;-73
2023/01/18 03:47:49;;;;;;;10.00;8.70;;;;;18.20;98034.00;;;;2083527;28;20291;-73
2023/01/18 03:48:49;;;;;;;9.75;8.75;;;;;18.20;98077.00;;;;2083410;28;20227;-73
2023/01/18 03:49:49;;;;;;;9.60;8.67;;;;;18.20;98069.00;;;;2083485;28;20267;-73
2023/01/18 03:51:21;;;;;;;9.70;8.70;;;;;18.20;98068.00;;;;2084317;28;20213;-73
2023/01/18 03:52:39;;;;;;;11.98;8.52;;;;;18.20;98069.00;;;;2083711;28;20216;-73
2023/01/18 03:53:57;;;;;;;10.15;8.63;;;;;18.20;98076.00;;;;2073780;28;20295;-72
2023/01/18 03:55:17;;;;;;;9.70;8.75;;;;;18.20;98082.00;;;;2075885;28;20230;-73
2023/01/18 03:56:22;;;;;;;9.57;8.57;;;;;18.20;98084.00;;;;2074099;28;20222;-72
2023/01/18 03:57:24;;;;;;;10.15;8.00;;;;;18.20;98080.00;;;;2076739;28;20252;-73
2023/01/18 03:58:32;;;;;;;10.07;8.20;;;;;18.20;98080.00;;;;2083751;28;20223;-73
2023/01/18 03:59:34;;;;;;;9.38;8.40;;;;;18.10;98086.00;;;;2083435;28;20326;-73
2023/01/18 04:00:35;;;;;;;9.93;8.45;;;;;18.20;98081.00;;;;2083609;28;20228;-73
2023/01/18 04:01:36;;;;;;;8.68;7.78;;;;;18.10;98081.00;;;;2083389;28;20551;-72
2023/01/18 04:02:36;;;;;;;8.80;7.90;;;;;18.10;98077.00;;;;2083639;28;20232;-73
2023/01/18 04:03:36;;;;;;;8.60;7.63;;;;;18.10;98081.00;;;;2084304;28;20235;-72
2023/01/18 04:04:37;;;;;;;9.60;7.97;;;;;18.10;98088.00;;;;2084388;28;20229;-73
2023/01/18 04:05:37;;;;;;;9.83;8.50;;;;;18.10;98079.00;;;;2084273;28;20583;-73
2023/01/18 04:06:37;;;;;;;8.80;8.00;;;;;18.10;98087.00;;;;2085014;28;20694;-73
2023/01/18 04:07:38;;;;;;;9.90;8.60;;;;;18.10;98087.00;;;;2084041;28;20690;-73
2023/01/18 04:08:38;;;;;;;8.70;7.83;;;;;18.10;98087.00;;;;2083856;28;20222;-73
2023/01/18 04:09:38;;;;;;;9.93;8.00;;;;;18.10;98114.00;;;;2081921;28;20397;-73
2023/01/18 04:10:39;;;;;;;9.77;8.43;;;;;18.10;98089.00;;;;2083331;28;20216;-73
2023/01/18 04:11:39;;;;;;;12.03;8.90;;;;;18.10;98096.00;;;;2083971;28;20714;-73
2023/01/18 04:12:39;;;;;;;9.27;8.20;;;;;18.10;98086.00;;;;2084813;28;20253;-72
2023/01/18 04:13:40;;;;;;;9.90;8.60;;;;;18.10;98090.00;;;;2084454;28;20549;-73
2023/01/18 04:14:40;;;;;;;10.17;7.70;;;;;18.10;98088.00;;;;2084032;28;20538;-73
2023/01/18 04:15:40;;;;;;;8.70;7.63;;;;;18.10;98093.00;;;;2084490;28;20261;-73
2023/01/18 04:16:41;;;;;;;9.33;7.87;;;;;18.10;98095.00;;;;2083851;28;20271;-73
2023/01/18 04:17:41;;;;;;;8.63;7.80;;;;;18.10;98094.00;;;;2084061;28;20212;-73
2023/01/18 04:18:42;;;;;;;10.30;8.17;;;;;18.10;98102.00;;;;2083563;28;20223;-73
2023/01/18 04:19:42;;;;;;;9.50;8.00;;;;;18.10;98100.00;;;;2084165;28;20215;-73
2023/01/18 04:20:42;;;;;;;10.77;8.37;;;;;18.10;98102.00;;;;2084719;28;20576;-73
2023/01/18 04:21:43;;;;;;;9.57;8.10;;;;;18.10;98107.00;;;;2084805;28;20225;-73
2023/01/18 04:22:43;;;;;;;8.83;7.93;;;;;18.00;98107.00;;;;2084723;28;20583;-73
2023/01/18 04:23:43;;;;;;;9.83;7.93;;;;;18.00;98101.00;;;;2084508;28;20222;-73
2023/01/18 04:24:44;;;;;;;11.47;8.13;;;;;18.00;98106.00;;;;2095950;22;20223;-68
2023/01/18 04:25:44;;;;;;;9.30;8.27;;;;;18.10;98102.00;;;;2081229;28;20213;-69
2023/01/18 04:26:45;;;;;;;10.63;8.00;;;;;18.10;98105.00;;;;2084758;28;20691;-68
2023/01/18 04:27:45;;;;;;;9.33;7.97;;;;;18.10;98094.00;;;;2080320;28;20220;-68
2023/01/18 04:28:45;;;;;;;8.57;7.20;;;;;18.00;98105.00;;;;2083675;28;20251;-68
2023/01/18 04:29:46;;;;;;;8.90;8.00;;;;;18.00;98104.00;;;;2084367;28;20587;-67
2023/01/18 04:30:48;;;;;;;8.47;7.57;;;;;18.10;98109.00;;;;2084537;28;20216;-68
2023/01/18 04:31:49;;;;;;;10.80;8.05;;;;;18.10;98105.00;;;;2084585;28;20211;-68
2023/01/18 04:32:49;;;;;;;8.80;7.90;;;;;18.00;98108.00;;;;2082883;28;20224;-68
2023/01/18 04:33:50;;;;;;;10.83;8.17;;;;;18.10;98108.00;;;;2084268;28;20217;-67
2023/01/18 04:34:50;;;;;;;9.70;8.55;;;;;18.00;98107.00;;;;2084204;28;20233;-67
2023/01/18 04:35:53;;;;;;;11.80;8.93;;;;;18.00;98111.00;;;;2083962;28;20270;-68
2023/01/18 04:36:53;;;;;;;8.73;7.65;;;;;18.00;98109.00;;;;2082016;28;20234;-68
2023/01/18 04:37:53;;;;;;;9.03;7.63;;;;;18.00;98090.00;;;;2082873;28;20215;-68
2023/01/18 04:38:54;;;;;;;8.73;7.60;;;;;18.00;98112.00;;;;2083544;28;20205;-67
2023/01/18 04:39:54;;;;;;;10.67;8.07;;;;;18.00;98116.00;;;;2083443;28;20602;-67
2023/01/18 04:40:54;;;;;;;8.43;7.57;;;;;18.00;98112.00;;;;2084192;28;20204;-68
2023/01/18 04:41:55;;;;;;;9.60;7.80;;;;;18.00;98102.00;;;;2084063;28;20252;-68
2023/01/18 04:42:55;;;;;;;10.30;8.13;;;;;18.00;98114.00;;;;2084537;28;20225;-68
2023/01/18 04:43:56;;;;;;;8.13;7.33;;;;;18.00;98118.00;;;;2084438;28;20223;-67
2023/01/18 04:44:56;;;;;;;8.90;7.50;;;;;18.00;98112.00;;;;2083845;28;20219;-68
2023/01/18 04:45:56;;;;;;;8.93;7.17;;;;;18.00;98117.00;;;;2083657;28;20207;-67
2023/01/18 04:46:57;;;;;;;10.00;8.17;;;;;18.00;98123.00;;;;2083597;28;20218;-68
2023/01/18 04:47:57;;;;;;;9.83;7.80;;;;;18.00;98126.00;;;;2083414;28;20546;-67
2023/01/18 04:48:57;;;;;;;8.10;7.30;;;;;18.00;98117.00;;;;2083710;28;20610;-68
2023/01/18 04:49:58;;;;;;;8.63;7.73;;;;;18.00;98116.00;;;;2084215;28;20237;-68
2023/01/18 04:50:58;;;;;;;8.77;7.70;;;;;18.00;98115.00;;;;2083400;28;20225;-67
2023/01/18 04:51:58;;;;;;;8.40;7.50;;;;;18.00;98122.00;;;;2083479;28;20314;-68
2023/01/18 04:52:59;;;;;;;9.50;7.47;;;;;18.00;98121.00;;;;2084137;28;20224;-68
2023/01/18 04:53:59;;;;;;;10.17;8.10;;;;;18.00;98120.00;;;;2083348;28;20228;-67
2023/01/18 04:54:59;;;;;;;8.10;7.10;;;;;18.00;98121.00;;;;2083402;28;20278;-67
2023/01/18 04:56:00;;;;;;;8.37;7.40;;;;;18.00;98123.00;;;;2083362;28;20216;-67
2023/01/18 04:57:00;;;;;;;8.67;7.13;;;;;17.90;98097.00;;;;2083554;28;20213;-68
2023/01/18 04:58:00;;;;;;;8.93;7.20;;;;;18.00;98119.00;;;;2083686;28;20247;-68
2023/01/18 04:59:00;;;;;;;8.37;7.40;;;;;17.90;98120.00;;;;2077238;28;20225;-68
2023/01/18 05:00:01;;;;;;;9.33;7.20;;;;;18.00;98121.00;;;;2082980;28;20215;-68
2023/01/18 05:01:06;;;;;;;9.50;7.77;;;;;17.90;98125.00;;;;2083563;28;20220;-68
2023/01/18 05:02:06;;;;;;;8.65;7.57;;;;;17.90;98121.00;;;;2082436;28;20227;-68
2023/01/18 05:03:07;;;;;;;8.33;7.20;;;;;18.00;98128.00;;;;2080952;28;20644;-68
2023/01/18 05:04:07;;;;;;;9.02;7.40;;;;;17.90;98125.00;;;;2083307;28;20580;-67
2023/01/18 05:05:08;;;;;;;9.33;7.57;;;;;18.00;98122.00;;;;2082553;28;20250;-67
2023/01/18 05:06:10;;;;;;;9.27;7.30;;;;;17.90;98131.00;;;;2082965;28;20238;-68
2023/01/18 05:07:10;;;;;;;8.20;7.30;;;;;18.00;98127.00;;;;2083403;28;20622;-69
2023/01/18 05:08:10;;;;;;;8.43;7.50;;;;;17.90;98132.00;;;;2082666;28;20215;-68
2023/01/18 05:09:11;;;;;;;8.50;7.60;;;;;17.90;98139.00;;;;2075227;28;20220;-67
2023/01/18 05:10:11;;;;;;;7.43;6.73;;;;;17.90;98136.00;;;;2082731;28;20851;-68
2023/01/18 05:11:14;;;;;;;8.77;7.87;;;;;17.90;98134.00;;;;2066390;28;20758;-67
2023/01/18 05:12:14;;;;;;;9.15;7.60;;;;;17.90;98137.00;;;;2066509;28;21291;-67
2023/01/18 05:13:14;;;;;;;8.33;7.40;;;;;17.90;98135.00;;;;2083117;28;20208;-67
2023/01/18 05:14:15;;;;;;;9.70;7.97;;;;;17.90;98135.00;;;;2082520;28;20212;-68
2023/01/18 05:15:17;;;;;;;8.60;7.30;;;;;17.90;98144.00;;;;2082486;28;20223;-67
2023/01/18 05:16:18;;;;;;;8.27;7.40;;;;;17.90;98135.00;;;;2083306;28;20258;-68
2023/01/18 05:17:19;;;;;;;9.05;7.10;;;;;17.90;98144.00;;;;2083239;28;20231;-67
2023/01/18 05:18:19;;;;;;;9.00;8.10;;;;;17.90;98145.00;;;;2083921;28;20284;-67
2023/01/18 05:19:19;;;;;;;9.10;7.40;;;;;17.90;98141.00;;;;2084140;28;20237;-67
2023/01/18 05:20:19;;;;;;;8.93;7.57;;;;;17.90;98149.00;;;;2084131;28;20212;-67
2023/01/18 05:21:20;;;;;;;8.97;7.03;;;;;17.90;98144.00;;;;2084184;28;20222;-68
2023/01/18 05:22:21;;;;;;;8.37;7.17;;;;;17.90;98142.00;;;;2082815;28;20218;-68
2023/01/18 05:23:21;;;;;;;8.07;7.27;;;;;17.90;98144.00;;;;2084852;28;20254;-68
2023/01/18 05:24:21;;;;;;;8.43;7.20;;;;;17.90;98150.00;;;;2087638;28;20460;-68
2023/01/18 05:25:22;;;;;;;9.13;7.40;;;;;17.90;98156.00;;;;2083826;28;20246;-68
2023/01/18 05:26:22;;;;;;;8.77;7.50;;;;;17.90;98148.00;;;;2083260;28;20204;-68
2023/01/18 05:27:23;;;;;;;10.40;7.60;;;;;17.90;98159.00;;;;2082580;28;20908;-65
2023/01/18 05:28:24;;;;;;;8.20;7.20;;;;;17.90;98155.00;;;;2082188;28;20219;-68
2023/01/18 05:29:24;;;;;;;9.07;7.32;;;;;17.90;98147.00;;;;2083289;28;20594;-68
2023/01/18 05:30:25;;;;;;;8.20;7.10;;;;;17.90;98153.00;;;;2083763;28;20240;-67
2023/01/18 05:31:25;;;;;;;9.50;7.40;;;;;17.90;98162.00;;;;2084178;28;20213;-68
2023/01/18 05:32:25;;;;;;;9.57;7.60;;;;;17.90;98167.00;;;;2083868;28;20224;-68
2023/01/18 05:33:26;;;;;;;8.57;7.60;;;;;17.80;98156.00;;;;2084336;28;20675;-67
2023/01/18 05:34:27;;;;;;;7.77;6.97;;;;;17.80;98170.00;;;;2083279;28;20679;-68
2023/01/18 05:35:27;;;;;;;9.70;7.70;;;;;17.90;98159.00;;;;2083803;28;20237;-68
2023/01/18 05:36:28;;;;;;;9.70;7.80;;;;;17.80;98170.00;;;;2084170;28;20212;-67
2023/01/18 05:37:28;;;;;;;9.10;7.37;;;;;17.80;98161.00;;;;2083901;28;20752;-67
2023/01/18 05:38:28;;;;;;;9.80;7.83;;;;;17.80;98161.00;;;;2082919;28;20285;-68
2023/01/18 05:39:29;;;;;;;8.17;7.30;;;;;17.90;98166.00;;;;2083185;28;20268;-68
2023/01/18 05:40:29;;;;;;;10.03;8.27;;;;;17.90;98175.00;;;;2083973;28;20244;-68
2023/01/18 05:41:29;;;;;;;8.70;7.80;;;;;17.80;98172.00;;;;2083949;28;20239;-67
2023/01/18 05:42:30;;;;;;;8.47;7.60;;;;;17.80;98169.00;;;;2083962;28;20251;-68
2023/01/18 05:43:30;;;;;;;9.97;8.07;;;;;17.80;98169.00;;;;2083113;28;20219;-68
2023/01/18 05:44:30;;;;;;;8.57;7.67;;;;;17.80;98173.00;;;;2083043;28;20218;-67